createdAt,value
2019-02-25T00:00:15.203Z,29.63
2019-02-25T00:02:44.253Z,31.10
2019-02-25T00:05:13.313Z,27.73
2019-02-25T00:07:42.371Z,25.00
2019-02-25T00:10:11.537Z,26.97
2019-02-25T00:12:40.626Z,28.17
2019-02-25T00:15:10.351Z,29.60
2019-02-25T00:17:40.651Z,23.97
2019-02-25T00:20:11.841Z,28.30
2019-02-25T00:22:40.897Z,24.73
2019-02-25T00:25:11.398Z,31.17
2019-02-25T00:27:40.494Z,24.97
2019-02-25T00:30:11.422Z,24.30
2019-02-25T00:32:40.488Z,27.23
2019-02-25T00:35:09.552Z,26.27
2019-02-25T00:37:38.676Z,25.80
2019-02-25T00:40:09.679Z,24.43
2019-02-25T00:42:38.742Z,24.53
2019-02-25T00:45:15.574Z,26.27
2019-02-25T00:47:44.733Z,25.97
2019-02-25T00:50:21.121Z,30.10
2019-02-25T00:52:50.209Z,25.40
2019-02-25T00:55:19.271Z,25.13
2019-02-25T00:57:48.331Z,27.03
2019-02-25T01:00:19.523Z,24.60
2019-02-25T01:02:48.584Z,26.43
2019-02-25T01:05:17.646Z,25.63
2019-02-25T01:07:46.748Z,29.13
2019-02-25T01:10:16.623Z,23.10
2019-02-25T01:12:46.197Z,23.00
2019-02-25T01:15:16.000Z,26.80
2019-02-25T01:17:45.156Z,24.57
2019-02-25T01:20:15.252Z,26.27
2019-02-25T01:22:44.312Z,26.00
2019-02-25T01:25:14.817Z,27.20
2019-02-25T01:27:43.874Z,26.50
2019-02-25T01:30:19.786Z,24.47
2019-02-25T01:32:48.874Z,23.03
2019-02-25T01:35:17.966Z,22.67
2019-02-25T01:37:47.013Z,25.83
2019-02-25T01:40:16.185Z,24.77
2019-02-25T01:42:45.270Z,27.53
2019-02-25T01:45:16.406Z,21.90
2019-02-25T01:47:45.463Z,23.67
2019-02-25T01:50:14.549Z,23.67
2019-02-25T01:52:43.642Z,23.70
2019-02-25T01:55:13.238Z,27.00
2019-02-25T01:57:42.308Z,23.20
2019-02-25T02:00:14.667Z,24.20
2019-02-25T02:02:43.805Z,23.20
2019-02-25T02:05:25.084Z,21.93
2019-02-25T02:07:54.471Z,24.37
2019-02-25T02:10:23.562Z,27.90
2019-02-25T02:12:52.649Z,25.57
2019-02-25T02:15:22.014Z,23.43
2019-02-25T02:17:51.072Z,27.33
2019-02-25T02:20:20.206Z,25.07
2019-02-25T02:22:49.272Z,26.87
2019-02-25T02:25:18.332Z,23.80
2019-02-25T02:27:47.417Z,24.17
2019-02-25T02:30:20.957Z,24.63
2019-02-25T02:32:50.067Z,23.50
2019-02-25T02:35:19.112Z,30.27
2019-02-25T02:37:48.205Z,23.73
2019-02-25T02:40:17.574Z,23.33
2019-02-25T02:43:01.952Z,22.07
2019-02-25T02:45:51.146Z,23.47
2019-02-25T02:48:23.560Z,23.67
2019-02-25T02:50:52.662Z,25.87
2019-02-25T02:53:21.780Z,25.30
2019-02-25T02:55:50.849Z,26.47
2019-02-25T02:58:19.905Z,23.93
2019-02-25T03:00:48.999Z,22.60
2019-02-25T03:03:18.186Z,23.03
2019-02-25T03:05:47.534Z,26.00
2019-02-25T03:08:16.585Z,25.57
2019-02-25T03:10:45.674Z,23.97
2019-02-25T03:13:14.732Z,22.27
2019-02-25T03:15:43.789Z,23.33
2019-02-25T03:18:12.868Z,21.53
2019-02-25T03:20:41.921Z,28.53
2019-02-25T03:23:14.046Z,24.73
2019-02-25T03:25:43.410Z,24.10
2019-02-25T03:28:12.469Z,24.33
2019-02-25T03:30:41.559Z,25.67
2019-02-25T03:33:10.617Z,29.73
2019-02-25T03:35:39.716Z,24.70
2019-02-25T03:38:08.812Z,26.00
2019-02-25T03:40:37.971Z,23.83
2019-02-25T03:43:07.101Z,24.80
2019-02-25T03:45:36.194Z,25.77
2019-02-25T03:48:05.278Z,23.77
2019-02-25T03:50:34.599Z,24.43
2019-02-25T03:53:03.665Z,24.77
2019-02-25T03:55:32.717Z,25.13
2019-02-25T03:58:01.817Z,25.83
2019-02-25T04:00:30.915Z,29.30
2019-02-25T04:03:00.036Z,24.53
2019-02-25T04:05:29.609Z,26.53
2019-02-25T04:07:58.666Z,27.50
2019-02-25T04:10:27.728Z,26.67
2019-02-25T04:12:56.817Z,27.20
2019-02-25T04:15:33.574Z,33.33
2019-02-25T04:18:02.677Z,30.20
2019-02-25T04:20:31.805Z,25.27
2019-02-25T04:23:00.961Z,35.63
2019-02-25T04:25:30.061Z,27.47
2019-02-25T04:27:59.185Z,25.37
2019-02-25T04:30:28.261Z,27.93
2019-02-25T04:32:57.652Z,24.87
2019-02-25T04:35:27.319Z,24.47
2019-02-25T04:37:56.410Z,26.47
2019-02-25T04:40:25.497Z,26.80
2019-02-25T04:42:54.550Z,26.17
2019-02-25T04:45:23.719Z,30.83
2019-02-25T04:47:52.867Z,38.47
2019-02-25T04:50:21.958Z,33.70
2019-02-25T04:52:51.042Z,32.13
2019-02-25T04:55:20.101Z,31.00
2019-02-25T04:57:49.238Z,31.63
2019-02-25T05:00:23.306Z,31.20
2019-02-25T05:02:52.395Z,33.67
2019-02-25T05:05:21.661Z,34.07
2019-02-25T05:07:50.766Z,32.43
2019-02-25T05:10:19.853Z,35.80
2019-02-25T05:13:02.574Z,38.00
2019-02-25T05:15:32.831Z,33.60
2019-02-25T05:18:01.930Z,36.93
2019-02-25T05:20:31.027Z,34.20
2019-02-25T05:23:13.130Z,31.67
2019-02-25T05:25:42.218Z,33.67
2019-02-25T05:28:11.413Z,31.07
2019-02-25T05:30:40.463Z,29.73
2019-02-25T05:33:09.549Z,36.70
2019-02-25T05:35:38.695Z,33.87
2019-02-25T05:38:07.760Z,34.80
2019-02-25T05:40:36.921Z,29.23
2019-02-25T05:43:06.075Z,33.70
2019-02-25T05:45:35.141Z,43.10
2019-02-25T05:48:04.227Z,31.10
2019-02-25T05:50:33.289Z,29.57
2019-02-25T05:53:02.488Z,29.57
2019-02-25T05:55:31.604Z,33.57
2019-02-25T05:58:00.696Z,36.60
2019-02-25T06:00:34.241Z,30.50
2019-02-25T06:03:03.405Z,31.50
2019-02-25T06:05:32.490Z,34.70
2019-02-25T06:08:01.558Z,31.00
2019-02-25T06:10:31.573Z,42.77
2019-02-25T06:13:00.660Z,37.87
2019-02-25T06:15:29.712Z,38.77
2019-02-25T06:17:58.773Z,39.97
2019-02-25T06:20:27.859Z,30.27
2019-02-25T06:22:56.916Z,40.13
2019-02-25T06:25:25.993Z,28.10
2019-02-25T06:27:55.389Z,34.13
2019-02-25T06:30:24.492Z,31.63
2019-02-25T06:32:53.565Z,34.00
2019-02-25T06:35:22.717Z,33.43
2019-02-25T06:37:51.856Z,34.87
2019-02-25T06:40:21.287Z,37.43
2019-02-25T06:42:50.336Z,37.87
2019-02-25T06:45:25.562Z,39.70
2019-02-25T06:47:54.650Z,29.57
2019-02-25T06:50:23.697Z,43.90
2019-02-25T06:52:52.790Z,32.43
2019-02-25T06:55:21.946Z,38.07
2019-02-25T06:57:51.049Z,34.97
2019-02-25T07:00:21.366Z,41.33
2019-02-25T07:02:50.471Z,39.33
2019-02-25T07:05:33.460Z,28.93
2019-02-25T07:08:04.149Z,31.33
2019-02-25T07:10:50.084Z,32.40
2019-02-25T07:13:20.857Z,32.10
2019-02-25T07:15:51.561Z,39.93
2019-02-25T07:18:39.041Z,30.13
2019-02-25T07:21:12.718Z,31.97
2019-02-25T07:23:52.358Z,32.30
2019-02-25T07:26:39.247Z,30.27
2019-02-25T07:29:15.871Z,36.50
2019-02-25T07:31:55.330Z,25.63
2019-02-25T07:34:41.221Z,35.03
2019-02-25T07:37:28.502Z,25.27
2019-02-25T07:40:11.449Z,24.33
2019-02-25T07:42:45.088Z,24.27
2019-02-25T07:45:28.880Z,28.70
2019-02-25T07:47:59.615Z,32.83
2019-02-25T07:50:30.303Z,30.57
2019-02-25T07:53:01.017Z,32.43
2019-02-25T07:55:37.725Z,31.50
2019-02-25T07:58:11.354Z,26.03
2019-02-25T08:00:51.236Z,21.13
2019-02-25T08:03:27.812Z,23.60
2019-02-25T08:06:13.783Z,25.00
2019-02-25T08:08:44.510Z,23.60
2019-02-25T08:11:15.219Z,24.60
2019-02-25T08:13:45.939Z,23.67
2019-02-25T08:16:16.985Z,25.40
2019-02-25T08:18:50.553Z,24.27
2019-02-25T08:21:21.257Z,32.33
2019-02-25T08:23:51.950Z,28.27
2019-02-25T08:26:28.722Z,30.00
2019-02-25T08:29:02.393Z,28.67
2019-02-25T08:31:33.097Z,28.70
2019-02-25T08:34:20.233Z,27.80
2019-02-25T08:37:17.689Z,26.90
2019-02-25T08:39:51.637Z,30.90
2019-02-25T08:42:33.177Z,31.17
2019-02-25T08:45:03.897Z,26.73
2019-02-25T08:47:37.578Z,26.70
2019-02-25T08:50:11.972Z,27.23
2019-02-25T08:52:41.057Z,27.47
2019-02-25T08:55:10.749Z,29.33
2019-02-25T08:57:39.796Z,27.23
2019-02-25T09:00:12.134Z,28.47
2019-02-25T09:02:41.205Z,34.20
2019-02-25T09:05:13.337Z,30.60
2019-02-25T09:07:42.834Z,34.53
2019-02-25T09:10:13.662Z,33.03
2019-02-25T09:12:42.829Z,33.70
2019-02-25T09:15:13.749Z,33.60
2019-02-25T09:17:45.324Z,36.33
2019-02-25T09:20:15.445Z,36.07
2019-02-25T09:22:44.530Z,34.47
2019-02-25T09:25:14.852Z,34.90
2019-02-25T09:27:43.978Z,37.97
2019-02-25T09:30:19.939Z,33.00
2019-02-25T09:32:49.080Z,36.60
2019-02-25T09:35:18.199Z,39.90
2019-02-25T09:37:47.244Z,37.13
2019-02-25T09:40:17.441Z,40.67
2019-02-25T09:42:46.487Z,39.73
2019-02-25T09:45:16.510Z,40.17
2019-02-25T09:47:45.563Z,42.97
2019-02-25T09:50:20.647Z,41.93
2019-02-25T09:52:49.691Z,48.27
2019-02-25T09:55:18.736Z,50.60
2019-02-25T09:57:47.822Z,40.70
2019-02-25T10:00:23.881Z,38.97
2019-02-25T10:02:55.069Z,44.13
2019-02-25T10:05:24.294Z,40.20
2019-02-25T10:07:53.381Z,35.93
2019-02-25T10:10:22.454Z,39.37
2019-02-25T10:12:51.528Z,43.93
2019-02-25T10:15:22.457Z,40.10
2019-02-25T10:17:51.504Z,44.37
2019-02-25T10:20:20.556Z,47.97
2019-02-25T10:22:49.609Z,43.27
2019-02-25T10:25:18.658Z,45.53
2019-02-25T10:27:49.413Z,40.17
2019-02-25T10:30:19.626Z,43.33
2019-02-25T10:32:48.769Z,43.67
2019-02-25T10:35:27.192Z,41.60
2019-02-25T10:37:56.726Z,40.77
2019-02-25T10:40:27.533Z,42.17
2019-02-25T10:42:57.269Z,37.77
2019-02-25T10:45:26.389Z,42.63
2019-02-25T10:47:58.482Z,43.63
2019-02-25T10:50:26.208Z,39.80
2019-02-25T10:53:03.229Z,41.67
2019-02-25T10:55:44.456Z,42.23
2019-02-25T10:58:11.577Z,35.67
2019-02-25T11:00:41.720Z,35.27
2019-02-25T11:03:12.861Z,32.50
2019-02-25T11:05:42.542Z,35.17
2019-02-25T11:08:13.886Z,34.00
2019-02-25T11:10:46.932Z,36.73
2019-02-25T11:13:15.845Z,35.17
2019-02-25T11:15:46.676Z,32.10
2019-02-25T11:18:19.234Z,33.17
2019-02-25T11:20:47.039Z,35.57
2019-02-25T11:23:17.647Z,35.87
2019-02-25T11:25:46.993Z,34.03
2019-02-25T11:28:25.449Z,35.17
2019-02-25T11:30:47.621Z,34.90
2019-02-25T11:33:17.700Z,32.40
2019-02-25T11:35:48.083Z,33.53
2019-02-25T11:38:17.382Z,31.37
2019-02-25T11:40:46.455Z,32.47
2019-02-25T11:43:16.635Z,34.33
2019-02-25T11:45:46.346Z,33.83
2019-02-25T11:48:15.393Z,29.57
2019-02-25T11:50:44.874Z,25.50
2019-02-25T11:53:14.050Z,26.67
2019-02-25T11:55:43.101Z,24.70
2019-02-25T11:58:12.186Z,24.03
2019-02-25T12:00:41.273Z,26.27
2019-02-25T12:03:10.367Z,33.13
2019-02-25T12:05:39.486Z,31.20
2019-02-25T12:08:08.607Z,41.50
2019-02-25T12:10:38.628Z,26.23
2019-02-25T12:13:07.914Z,30.13
2019-02-25T12:15:37.006Z,51.03
2019-02-25T12:18:06.084Z,32.93
2019-02-25T12:20:35.165Z,47.70
2019-02-25T12:23:04.668Z,43.30
2019-02-25T12:25:33.746Z,30.40
2019-02-25T12:28:02.830Z,29.80
2019-02-25T12:30:31.914Z,29.93
2019-02-25T12:33:00.969Z,26.97
2019-02-25T12:35:30.024Z,53.83
2019-02-25T12:37:59.149Z,69.57
2019-02-25T12:40:28.310Z,112.10
2019-02-25T12:42:57.362Z,52.20
2019-02-25T12:45:26.420Z,27.23
2019-02-25T12:47:55.481Z,26.93
2019-02-25T12:50:24.926Z,45.67
2019-02-25T12:52:54.099Z,35.53
2019-02-25T12:55:23.607Z,44.00
2019-02-25T12:57:52.773Z,47.60
2019-02-25T13:00:22.886Z,29.10
2019-02-25T13:02:51.932Z,41.67
2019-02-25T13:05:24.593Z,41.93
2019-02-25T13:07:53.716Z,34.00
2019-02-25T13:10:22.774Z,29.07
2019-02-25T13:12:51.946Z,27.50
2019-02-25T13:15:22.123Z,31.97
2019-02-25T13:17:52.182Z,32.17
2019-02-25T13:20:22.230Z,30.70
2019-02-25T13:22:51.540Z,32.70
2019-02-25T13:25:29.352Z,26.40
2019-02-25T13:27:59.438Z,27.77
2019-02-25T13:30:29.352Z,25.80
2019-02-25T13:32:58.477Z,26.93
2019-02-25T13:35:27.541Z,29.67
2019-02-25T13:37:56.669Z,35.67
2019-02-25T13:40:25.759Z,31.53
2019-02-25T13:42:55.106Z,26.47
2019-02-25T13:45:24.341Z,31.17
2019-02-25T13:47:53.498Z,30.93
2019-02-25T13:50:22.660Z,30.30
2019-02-25T13:52:51.783Z,34.27
2019-02-25T13:55:23.532Z,32.90
2019-02-25T13:57:52.703Z,31.00
2019-02-25T14:00:26.248Z,32.20
2019-02-25T14:02:55.420Z,32.13
2019-02-25T14:05:24.539Z,35.00
2019-02-25T14:07:53.736Z,35.50
2019-02-25T14:10:22.878Z,37.03
2019-02-25T14:12:52.002Z,34.27
2019-02-25T14:15:22.680Z,32.70
2019-02-25T14:17:51.812Z,32.33
2019-02-25T14:20:24.946Z,40.70
2019-02-25T14:22:54.148Z,30.63
2019-02-25T14:25:27.372Z,37.67
2019-02-25T14:27:56.837Z,33.53
2019-02-25T14:30:26.846Z,41.03
2019-02-25T14:32:56.211Z,40.27
2019-02-25T14:35:28.498Z,39.23
2019-02-25T14:38:05.056Z,34.87
2019-02-25T14:40:32.122Z,37.30
2019-02-25T14:43:03.259Z,44.23
2019-02-25T14:45:33.507Z,35.33
2019-02-25T14:48:04.783Z,43.73
2019-02-25T14:50:32.564Z,41.17
2019-02-25T14:53:03.998Z,39.53
2019-02-25T14:55:32.372Z,38.07
2019-02-25T14:58:04.476Z,40.50
2019-02-25T15:00:35.037Z,34.37
2019-02-25T15:03:02.928Z,41.97
2019-02-25T15:05:32.064Z,39.53
2019-02-25T15:08:01.497Z,37.33
2019-02-25T15:10:31.719Z,38.40
2019-02-25T15:13:03.840Z,39.43
2019-02-25T15:15:34.642Z,41.10
2019-02-25T15:18:03.236Z,37.43
2019-02-25T15:20:32.692Z,38.67
2019-02-25T15:23:01.756Z,42.57
2019-02-25T15:25:33.100Z,41.53
2019-02-25T15:28:01.568Z,38.77
2019-02-25T15:30:31.818Z,43.20
2019-02-25T15:33:01.015Z,37.47
2019-02-25T15:35:35.136Z,36.40
2019-02-25T15:38:03.639Z,42.20
2019-02-25T15:40:32.800Z,47.47
2019-02-25T15:43:15.823Z,39.07
2019-02-25T15:45:44.485Z,41.43
2019-02-25T15:48:18.784Z,43.60
2019-02-25T15:50:50.703Z,40.63
2019-02-25T15:53:20.351Z,43.77
2019-02-25T15:55:49.476Z,46.87
2019-02-25T15:58:18.818Z,43.60
2019-02-25T16:00:47.971Z,39.07
2019-02-25T16:03:20.464Z,39.07
2019-02-25T16:05:47.886Z,39.47
2019-02-25T16:08:20.951Z,35.97
2019-02-25T16:10:49.421Z,43.73
2019-02-25T16:13:18.959Z,45.57
2019-02-25T16:15:48.126Z,41.07
2019-02-25T16:18:17.244Z,42.87
2019-02-25T16:20:46.393Z,42.37
2019-02-25T16:23:15.508Z,41.17
2019-02-25T16:25:46.193Z,46.07
2019-02-25T16:28:17.324Z,42.23
2019-02-25T16:30:46.891Z,44.87
2019-02-25T16:33:17.050Z,46.53
2019-02-25T16:35:46.312Z,44.47
2019-02-25T16:38:15.646Z,42.40
2019-02-25T16:40:44.773Z,40.77
2019-02-25T16:43:13.970Z,44.23
2019-02-25T16:45:45.279Z,43.60
2019-02-25T16:48:13.936Z,43.37
2019-02-25T16:50:45.812Z,41.37
2019-02-25T16:53:15.417Z,41.60
2019-02-25T16:55:46.833Z,42.50
2019-02-25T16:58:15.604Z,40.60
2019-02-25T17:00:47.837Z,41.00
2019-02-25T17:03:17.732Z,41.53
2019-02-25T17:05:47.674Z,41.00
2019-02-25T17:08:19.425Z,46.20
2019-02-25T17:10:49.551Z,39.50
2019-02-25T17:13:19.376Z,42.47
2019-02-25T17:15:48.521Z,43.17
2019-02-25T17:18:17.645Z,38.97
2019-02-25T17:20:49.711Z,40.40
2019-02-25T17:23:17.605Z,44.00
2019-02-25T17:25:46.826Z,40.83
2019-02-25T17:28:19.733Z,42.83
2019-02-25T17:30:49.660Z,39.90
2019-02-25T17:33:18.875Z,39.83
2019-02-25T17:35:49.682Z,40.03
2019-02-25T17:38:20.917Z,42.83
2019-02-25T17:40:49.570Z,46.53
2019-02-25T17:43:20.263Z,48.27
2019-02-25T17:45:51.513Z,40.03
2019-02-25T17:51:03.776Z,42.00
2019-02-25T17:53:32.928Z,44.93
2019-02-25T17:56:02.053Z,45.30
2019-02-25T17:58:31.180Z,43.63
2019-02-25T18:01:01.567Z,41.43
2019-02-25T18:03:31.732Z,39.17
2019-02-25T18:06:02.874Z,39.07
2019-02-25T18:08:32.226Z,38.43
2019-02-25T18:11:02.208Z,42.60
2019-02-25T18:13:32.919Z,37.30
2019-02-25T18:16:02.334Z,40.33
2019-02-25T18:18:31.506Z,39.70
2019-02-25T18:21:00.627Z,41.73
2019-02-25T18:23:29.801Z,42.30
2019-02-25T18:25:58.925Z,40.13
2019-02-25T18:28:28.064Z,44.37
2019-02-25T18:30:59.652Z,43.37
2019-02-25T18:33:29.092Z,45.80
2019-02-25T18:36:00.217Z,41.57
2019-02-25T18:38:29.543Z,46.70
2019-02-25T18:41:00.411Z,43.00
2019-02-25T18:43:30.585Z,47.97
2019-02-25T18:46:00.622Z,63.57
2019-02-25T18:48:30.521Z,95.37
2019-02-25T18:51:01.264Z,75.90
2019-02-25T18:53:30.727Z,44.10
2019-02-25T18:56:00.808Z,43.07
2019-02-25T18:58:31.010Z,44.90
2019-02-25T19:01:00.845Z,43.53
2019-02-25T19:03:31.209Z,44.77
2019-02-25T19:06:06.523Z,45.47
2019-02-25T19:08:35.661Z,47.00
2019-02-25T19:11:04.824Z,44.23
2019-02-25T19:13:33.987Z,48.13
2019-02-25T19:16:03.118Z,48.30
2019-02-25T19:18:34.491Z,44.60
2019-02-25T19:21:04.462Z,45.63
2019-02-25T19:23:36.922Z,47.50
2019-02-25T19:26:04.857Z,45.60
2019-02-25T19:28:34.247Z,43.20
2019-02-25T19:31:03.733Z,45.37
2019-02-25T19:33:36.334Z,46.93
2019-02-25T19:36:05.056Z,47.63
2019-02-25T19:38:36.264Z,43.50
2019-02-25T19:41:05.239Z,49.03
2019-02-25T19:43:34.373Z,44.83
2019-02-25T19:46:04.598Z,43.47
2019-02-25T19:48:34.442Z,45.07
2019-02-25T19:51:04.318Z,47.03
2019-02-25T19:53:36.574Z,48.20
2019-02-25T19:56:05.170Z,46.50
2019-02-25T19:58:36.470Z,45.07
2019-02-25T20:01:06.101Z,45.67
2019-02-25T20:03:37.551Z,43.37
2019-02-25T20:06:11.231Z,44.87
2019-02-25T20:08:37.527Z,47.70
2019-02-25T20:11:09.317Z,49.33
2019-02-25T20:13:37.586Z,46.43
2019-02-25T20:16:08.213Z,74.23
2019-02-25T20:18:38.054Z,49.57
2019-02-25T20:21:08.362Z,48.60
2019-02-25T20:23:37.449Z,45.10
2019-02-25T20:26:06.568Z,48.03
2019-02-25T20:28:35.718Z,51.90
2019-02-25T20:31:05.791Z,46.80
2019-02-25T20:33:37.382Z,46.23
2019-02-25T20:36:06.535Z,46.23
2019-02-25T20:38:37.297Z,46.00
2019-02-25T20:41:06.462Z,45.40
2019-02-25T20:43:35.718Z,46.20
2019-02-25T20:46:06.070Z,45.17
2019-02-25T20:48:35.355Z,48.40
2019-02-25T20:51:10.259Z,44.37
2019-02-25T20:53:40.336Z,44.23
2019-02-25T20:56:09.483Z,46.67
2019-02-25T20:58:40.273Z,46.17
2019-02-25T21:01:11.524Z,47.20
2019-02-25T21:03:43.902Z,48.03
2019-02-25T21:06:12.664Z,43.13
2019-02-25T21:08:42.860Z,50.53
2019-02-25T21:11:13.945Z,48.77
2019-02-25T21:13:43.668Z,52.13
2019-02-25T21:16:12.748Z,50.30
2019-02-25T21:18:41.816Z,51.80
2019-02-25T21:21:13.462Z,54.47
2019-02-25T21:23:43.614Z,47.87
2019-02-25T21:26:13.050Z,48.93
2019-02-25T21:28:42.868Z,47.80
2019-02-25T21:31:14.575Z,45.07
2019-02-25T21:33:47.421Z,47.33
2019-02-25T21:36:19.611Z,41.47
2019-02-25T21:38:49.644Z,47.00
2019-02-25T21:41:19.465Z,44.67
2019-02-25T21:43:49.431Z,45.00
2019-02-25T21:46:21.931Z,48.33
2019-02-25T21:48:53.145Z,45.67
2019-02-25T21:51:21.705Z,44.70
2019-02-25T21:53:53.678Z,44.70
2019-02-25T21:56:23.255Z,47.10
2019-02-25T21:58:53.154Z,41.73
2019-02-25T22:01:22.389Z,43.47
2019-02-25T22:03:52.973Z,47.33
2019-02-25T22:06:24.903Z,42.60
2019-02-25T22:08:55.961Z,43.40
2019-02-25T22:11:26.108Z,38.37
2019-02-25T22:13:55.291Z,38.53
2019-02-25T22:16:25.627Z,40.20
2019-02-25T22:18:56.523Z,40.93
2019-02-25T22:21:25.981Z,43.97
2019-02-25T22:23:58.922Z,39.17
2019-02-25T22:26:28.986Z,40.30
2019-02-25T22:28:57.963Z,46.30
2019-02-25T22:31:27.643Z,40.70
2019-02-25T22:33:56.827Z,41.43
2019-02-25T22:36:25.966Z,38.60
2019-02-25T22:38:56.745Z,44.80
2019-02-25T22:41:27.170Z,40.93
2019-02-25T22:43:56.318Z,40.40
2019-02-25T22:46:28.140Z,40.57
2019-02-25T22:48:56.271Z,42.37
2019-02-25T22:51:27.819Z,38.87
2019-02-25T22:53:56.137Z,39.37
2019-02-25T22:56:28.059Z,40.97
2019-02-25T22:58:56.627Z,41.30
2019-02-25T23:01:26.884Z,44.53
2019-02-25T23:03:57.362Z,42.77
2019-02-25T23:06:26.701Z,38.53
2019-02-25T23:08:56.350Z,43.20
2019-02-25T23:11:26.152Z,39.63
2019-02-25T23:13:55.421Z,42.37
2019-02-25T23:16:25.424Z,46.47
2019-02-25T23:18:54.818Z,38.57
2019-02-25T23:21:26.397Z,39.17
2019-02-25T23:23:55.889Z,42.10
2019-02-25T23:26:25.486Z,43.03
2019-02-25T23:28:57.216Z,44.47
2019-02-25T23:31:25.337Z,41.63
2019-02-25T23:33:54.438Z,44.43
2019-02-25T23:36:24.769Z,38.53
2019-02-25T23:38:54.966Z,43.53
2019-02-25T23:41:25.156Z,40.87
2019-02-25T23:43:54.224Z,36.27
2019-02-25T23:46:29.393Z,43.47
2019-02-25T23:48:57.345Z,43.33
2019-02-25T23:51:26.413Z,36.90
2019-02-25T23:53:57.564Z,38.77
2019-02-25T23:56:27.514Z,38.47
2019-02-25T23:58:57.203Z,35.60
